createdAt,value
2019-04-29T00:02:11.805Z,6.92
2019-04-29T00:04:41.097Z,8.53
2019-04-29T00:07:10.369Z,7.10
2019-04-29T00:09:40.019Z,10.50
2019-04-29T00:12:09.357Z,10.85
2019-04-29T00:14:58.390Z,9.28
2019-04-29T00:17:47.680Z,8.40
2019-04-29T00:20:27.733Z,6.12
2019-04-29T00:22:56.997Z,7.25
2019-04-29T00:25:26.279Z,10.05
2019-04-29T00:27:55.810Z,7.05
2019-04-29T00:30:25.366Z,6.65
2019-04-29T00:32:54.924Z,6.60
2019-04-29T00:35:24.257Z,7.70
2019-04-29T00:37:58.154Z,5.97
2019-04-29T00:40:45.304Z,5.75
2019-04-29T00:43:25.403Z,8.33
2019-04-29T00:45:54.677Z,7.40
2019-04-29T00:48:23.959Z,7.25
2019-04-29T00:50:53.513Z,7.78
2019-04-29T00:53:22.953Z,6.35
2019-04-29T00:55:52.501Z,5.53
2019-04-29T00:58:22.741Z,7.05
2019-04-29T01:00:52.462Z,5.47
2019-04-29T01:03:21.773Z,6.40
2019-04-29T01:05:51.369Z,5.90
2019-04-29T01:08:20.633Z,6.87
2019-04-29T01:10:50.182Z,6.28
2019-04-29T01:13:19.454Z,6.83
2019-04-29T01:15:48.716Z,6.37
2019-04-29T01:18:18.286Z,6.22
2019-04-29T01:20:47.549Z,5.92
2019-04-29T01:23:16.823Z,6.42
2019-04-29T01:25:48.025Z,6.20
2019-04-29T01:28:25.223Z,6.87
2019-04-29T01:31:01.409Z,7.25
2019-04-29T01:33:30.709Z,7.25
2019-04-29T01:36:16.446Z,8.08
2019-04-29T01:38:48.883Z,9.65
2019-04-29T01:41:32.182Z,6.87
2019-04-29T01:44:03.258Z,5.60
2019-04-29T01:46:32.832Z,9.23
2019-04-29T01:49:02.213Z,6.80
2019-04-29T01:51:31.485Z,6.53
2019-04-29T01:54:00.772Z,8.40
2019-04-29T01:56:30.025Z,7.00
2019-04-29T01:58:59.352Z,7.85
2019-04-29T02:01:28.622Z,8.43
2019-04-29T02:03:57.892Z,7.33
2019-04-29T02:06:27.330Z,7.37
2019-04-29T02:08:57.348Z,7.67
2019-04-29T02:11:26.614Z,7.83
2019-04-29T02:13:56.149Z,9.48
2019-04-29T02:16:25.657Z,10.88
2019-04-29T02:18:55.161Z,8.53
2019-04-29T02:21:24.425Z,9.98
2019-04-29T02:23:55.607Z,10.00
2019-04-29T02:26:24.869Z,7.60
2019-04-29T02:28:54.157Z,7.80
2019-04-29T02:31:38.672Z,7.78
2019-04-29T02:34:08.281Z,8.10
2019-04-29T02:36:38.554Z,7.85
2019-04-29T02:39:17.005Z,8.15
2019-04-29T02:41:53.890Z,8.95
2019-04-29T02:44:23.401Z,9.75
2019-04-29T02:46:53.754Z,8.78
2019-04-29T02:49:23.086Z,10.25
2019-04-29T02:51:53.233Z,10.95
2019-04-29T02:54:24.598Z,10.90
2019-04-29T02:57:01.621Z,9.20
2019-04-29T02:59:44.782Z,10.40
2019-04-29T03:02:24.470Z,7.50
2019-04-29T03:05:11.317Z,9.00
2019-04-29T03:07:40.994Z,9.98
2019-04-29T03:10:10.805Z,10.28
2019-04-29T03:12:40.495Z,9.60
2019-04-29T03:15:10.109Z,8.60
2019-04-29T03:17:39.450Z,10.35
2019-04-29T03:20:19.606Z,10.23
2019-04-29T03:22:50.444Z,8.23
2019-04-29T03:25:19.703Z,7.35
2019-04-29T03:27:49.049Z,6.10
2019-04-29T03:30:18.501Z,8.98
2019-04-29T03:32:47.765Z,8.88
2019-04-29T03:35:17.031Z,8.33
2019-04-29T03:37:47.366Z,10.95
2019-04-29T03:40:16.649Z,8.18
2019-04-29T03:42:45.909Z,12.45
2019-04-29T03:45:15.435Z,7.62
2019-04-29T03:47:44.862Z,9.18
2019-04-29T03:50:14.459Z,8.35
2019-04-29T03:52:43.748Z,6.70
2019-04-29T03:55:13.095Z,8.35
2019-04-29T03:57:42.353Z,7.67
2019-04-29T04:00:13.802Z,8.55
2019-04-29T04:02:47.661Z,8.60
2019-04-29T04:05:24.294Z,9.20
2019-04-29T04:08:11.708Z,7.58
2019-04-29T04:10:40.979Z,7.35
2019-04-29T04:13:10.510Z,8.65
2019-04-29T04:15:40.124Z,16.27
2019-04-29T04:18:17.338Z,11.20
2019-04-29T04:20:46.913Z,10.78
2019-04-29T04:23:16.427Z,6.92
2019-04-29T04:25:45.714Z,9.35
2019-04-29T04:28:15.045Z,8.40
2019-04-29T04:30:44.316Z,12.20
2019-04-29T04:33:13.830Z,8.85
2019-04-29T04:35:43.340Z,9.65
2019-04-29T04:38:12.846Z,9.10
2019-04-29T04:40:58.821Z,7.58
2019-04-29T04:43:28.105Z,10.03
2019-04-29T04:45:57.388Z,10.40
2019-04-29T04:48:26.725Z,8.60
2019-04-29T04:50:56.084Z,8.63
2019-04-29T04:53:25.358Z,8.28
2019-04-29T04:55:56.258Z,9.35
2019-04-29T04:58:25.529Z,9.45
2019-04-29T05:00:55.086Z,9.10
2019-04-29T05:03:24.350Z,9.68
2019-04-29T05:05:53.618Z,10.32
2019-04-29T05:08:22.905Z,12.68
2019-04-29T05:10:52.169Z,9.20
2019-04-29T05:13:28.438Z,10.20
2019-04-29T05:15:52.729Z,11.43
2019-04-29T05:18:22.010Z,10.70
2019-04-29T05:20:52.344Z,13.78
2019-04-29T05:23:21.962Z,14.20
2019-04-29T05:25:51.296Z,9.45
2019-04-29T05:28:20.569Z,12.07
2019-04-29T05:30:49.846Z,12.88
2019-04-29T05:33:19.117Z,11.30
2019-04-29T05:35:50.031Z,10.78
2019-04-29T05:38:23.600Z,10.63
2019-04-29T05:40:56.456Z,12.07
2019-04-29T05:43:27.075Z,14.95
2019-04-29T05:46:07.891Z,13.22
2019-04-29T05:48:37.606Z,16.57
2019-04-29T05:51:08.586Z,17.60
2019-04-29T05:53:42.257Z,13.68
2019-04-29T05:56:11.533Z,14.15
2019-04-29T05:58:40.812Z,15.65
2019-04-29T06:01:11.727Z,17.30
2019-04-29T06:03:44.173Z,21.50
2019-04-29T06:06:12.351Z,21.33
2019-04-29T06:08:42.149Z,17.50
2019-04-29T06:11:11.431Z,14.80
2019-04-29T06:13:40.709Z,18.17
2019-04-29T06:16:09.981Z,14.68
2019-04-29T06:18:40.883Z,11.73
2019-04-29T06:21:10.426Z,9.90
2019-04-29T06:23:39.805Z,13.35
2019-04-29T06:26:09.510Z,13.93
2019-04-29T06:28:39.120Z,11.20
2019-04-29T06:31:08.409Z,15.93
2019-04-29T06:33:37.693Z,13.30
2019-04-29T06:36:07.214Z,18.00
2019-04-29T06:38:36.498Z,14.13
2019-04-29T06:41:09.718Z,20.50
2019-04-29T06:43:37.069Z,18.83
2019-04-29T06:46:06.356Z,16.37
2019-04-29T06:48:35.639Z,21.67
2019-04-29T06:51:05.098Z,24.60
2019-04-29T06:53:34.685Z,18.90
2019-04-29T06:56:04.310Z,19.27
2019-04-29T06:58:36.707Z,20.30
2019-04-29T07:01:05.644Z,18.60
2019-04-29T07:03:35.097Z,22.97
2019-04-29T07:06:04.625Z,18.93
2019-04-29T07:08:33.905Z,18.53
2019-04-29T07:11:03.194Z,18.57
2019-04-29T07:13:32.479Z,19.73
2019-04-29T07:16:01.769Z,15.23
2019-04-29T07:18:31.065Z,17.43
2019-04-29T07:21:00.364Z,20.80
2019-04-29T07:23:29.645Z,18.00
2019-04-29T07:25:59.185Z,15.10
2019-04-29T07:28:29.982Z,15.17
2019-04-29T07:31:01.551Z,14.03
2019-04-29T07:33:30.490Z,17.30
2019-04-29T07:36:10.329Z,15.40
2019-04-29T07:38:41.258Z,12.07
2019-04-29T07:41:02.001Z,14.93
2019-04-29T07:43:31.276Z,13.60
2019-04-29T07:46:05.566Z,17.37
2019-04-29T07:48:36.901Z,14.90
2019-04-29T07:51:06.218Z,14.97
2019-04-29T07:53:44.720Z,14.53
2019-04-29T07:56:08.107Z,12.93
2019-04-29T07:58:37.549Z,16.47
2019-04-29T08:01:07.318Z,17.90
2019-04-29T08:03:36.922Z,15.20
2019-04-29T08:06:06.212Z,12.27
2019-04-29T08:08:35.724Z,17.63
2019-04-29T08:11:05.339Z,18.13
2019-04-29T08:13:34.749Z,14.20
2019-04-29T08:16:04.054Z,13.20
2019-04-29T08:18:33.649Z,16.87
2019-04-29T08:21:03.257Z,12.40
2019-04-29T08:23:38.546Z,15.03
2019-04-29T08:26:04.552Z,16.73
2019-04-29T08:28:33.978Z,12.70
2019-04-29T08:31:03.257Z,19.60
2019-04-29T08:33:32.834Z,16.33
2019-04-29T08:36:02.277Z,18.13
2019-04-29T08:38:32.529Z,12.50
2019-04-29T08:41:01.809Z,13.00
2019-04-29T08:43:44.981Z,12.57
2019-04-29T08:46:15.952Z,13.00
2019-04-29T08:48:45.975Z,12.47
2019-04-29T08:51:15.384Z,15.97
2019-04-29T08:53:44.678Z,13.00
2019-04-29T08:56:13.949Z,13.47
2019-04-29T08:58:44.075Z,15.27
2019-04-29T09:01:14.816Z,12.70
2019-04-29T09:03:45.165Z,12.70
2019-04-29T09:06:14.440Z,13.50
2019-04-29T09:08:54.570Z,14.30
2019-04-29T09:11:14.802Z,11.80
2019-04-29T09:13:44.094Z,13.60
2019-04-29T09:16:13.361Z,11.23
2019-04-29T09:18:42.645Z,13.33
2019-04-29T09:21:11.923Z,14.97
2019-04-29T09:23:41.205Z,12.67
2019-04-29T09:26:17.877Z,12.83
2019-04-29T09:28:49.808Z,15.70
2019-04-29T09:31:18.609Z,16.50
2019-04-29T09:33:49.142Z,13.63
2019-04-29T09:36:18.861Z,10.47
2019-04-29T09:38:48.146Z,14.00
2019-04-29T09:41:34.989Z,19.93
2019-04-29T09:44:20.929Z,18.10
2019-04-29T09:46:50.203Z,13.43
2019-04-29T09:49:19.480Z,14.00
2019-04-29T09:51:48.759Z,18.47
2019-04-29T09:54:18.354Z,13.13
2019-04-29T09:56:47.629Z,15.77
2019-04-29T09:59:30.780Z,10.03
2019-04-29T10:02:10.317Z,12.47
2019-04-29T10:04:57.301Z,14.43
2019-04-29T10:07:26.585Z,11.33
2019-04-29T10:09:57.535Z,8.70
2019-04-29T10:12:27.085Z,10.10
2019-04-29T10:14:56.357Z,9.10
2019-04-29T10:17:33.086Z,10.50
2019-04-29T10:20:04.440Z,9.20
2019-04-29T10:22:34.863Z,12.43
2019-04-29T10:25:06.553Z,10.20
2019-04-29T10:27:35.898Z,14.70
2019-04-29T10:30:09.407Z,11.87
2019-04-29T10:32:42.503Z,13.23
2019-04-29T10:35:11.586Z,9.53
2019-04-29T10:37:41.023Z,10.67
2019-04-29T10:40:12.280Z,12.50
2019-04-29T10:42:45.668Z,10.60
2019-04-29T10:45:28.293Z,12.83
2019-04-29T10:48:15.442Z,10.90
2019-04-29T10:50:47.164Z,10.70
2019-04-29T10:53:17.610Z,16.07
2019-04-29T10:55:46.950Z,14.37
2019-04-29T10:58:21.895Z,14.23
2019-04-29T11:00:58.470Z,12.27
2019-04-29T11:03:28.921Z,14.20
2019-04-29T11:06:01.809Z,12.17
2019-04-29T11:08:39.780Z,11.80
2019-04-29T11:11:22.133Z,10.13
2019-04-29T11:13:47.014Z,13.23
2019-04-29T11:16:14.018Z,14.27
2019-04-29T11:18:43.297Z,13.30
2019-04-29T11:21:12.750Z,12.10
2019-04-29T11:23:43.681Z,16.23
2019-04-29T11:26:20.029Z,10.87
2019-04-29T11:28:51.175Z,17.43
2019-04-29T11:31:20.461Z,14.40
2019-04-29T11:33:51.389Z,14.23
2019-04-29T11:36:22.296Z,12.90
2019-04-29T11:38:51.857Z,15.27
2019-04-29T11:41:21.373Z,14.03
2019-04-29T11:43:51.512Z,12.47
2019-04-29T11:46:22.806Z,12.27
2019-04-29T11:48:53.801Z,11.80
2019-04-29T11:51:34.063Z,12.60
2019-04-29T11:54:01.737Z,11.07
2019-04-29T11:56:31.709Z,10.93
2019-04-29T11:59:08.611Z,10.00
2019-04-29T12:01:47.141Z,9.43
2019-04-29T12:04:34.701Z,9.20
2019-04-29T12:07:04.744Z,10.50
2019-04-29T12:09:34.896Z,10.50
2019-04-29T12:12:07.797Z,11.37
2019-04-29T12:14:41.141Z,11.03
2019-04-29T12:17:28.248Z,9.43
2019-04-29T12:20:02.069Z,10.20
2019-04-29T12:22:41.440Z,10.20
2019-04-29T12:25:06.519Z,10.40
2019-04-29T12:27:36.072Z,12.97
2019-04-29T12:30:09.525Z,10.07
2019-04-29T12:32:43.411Z,11.63
2019-04-29T12:35:16.727Z,11.17
2019-04-29T12:38:05.519Z,13.00
2019-04-29T12:40:38.896Z,13.13
2019-04-29T12:43:26.273Z,16.27
2019-04-29T12:46:02.988Z,13.87
2019-04-29T12:48:32.314Z,12.40
2019-04-29T12:51:01.599Z,15.20
2019-04-29T12:53:30.877Z,12.47
2019-04-29T12:56:00.492Z,13.67
2019-04-29T12:58:29.778Z,13.80
2019-04-29T13:01:05.680Z,14.37
2019-04-29T13:03:39.789Z,11.33
2019-04-29T13:06:09.796Z,12.37
2019-04-29T13:08:55.738Z,11.63
2019-04-29T13:11:37.526Z,13.47
2019-04-29T13:14:01.694Z,11.30
2019-04-29T13:16:36.885Z,11.00
2019-04-29T13:19:12.344Z,12.33
2019-04-29T13:21:39.638Z,11.10
2019-04-29T13:24:22.058Z,9.00
2019-04-29T13:26:42.830Z,10.23
2019-04-29T13:29:25.862Z,10.63
2019-04-29T13:31:42.115Z,8.70
2019-04-29T13:34:23.558Z,9.50
2019-04-29T13:36:44.165Z,9.37
2019-04-29T13:39:14.010Z,9.67
2019-04-29T13:41:57.085Z,8.77
2019-04-29T13:44:19.287Z,9.87
2019-04-29T13:46:51.042Z,8.10
2019-04-29T13:49:35.993Z,7.90
2019-04-29T13:52:06.733Z,8.60
2019-04-29T13:54:37.354Z,7.47
2019-04-29T13:57:15.626Z,10.33
2019-04-29T13:59:49.200Z,9.33
2019-04-29T14:02:33.591Z,8.50
2019-04-29T14:05:05.617Z,9.30
2019-04-29T14:07:35.197Z,7.17
2019-04-29T14:10:10.150Z,9.73
2019-04-29T14:13:09.159Z,8.53
2019-04-29T14:15:10.261Z,7.83
2019-04-29T14:17:39.795Z,9.93
2019-04-29T14:20:15.233Z,11.97
2019-04-29T14:22:41.376Z,7.80
2019-04-29T14:25:13.643Z,10.40
2019-04-29T14:27:43.108Z,9.20
2019-04-29T14:30:15.370Z,9.23
2019-04-29T14:32:46.940Z,10.73
2019-04-29T14:35:20.901Z,10.77
2019-04-29T14:37:55.243Z,8.77
2019-04-29T14:40:21.521Z,10.80
2019-04-29T14:42:58.088Z,8.20
2019-04-29T14:45:28.072Z,9.60
2019-04-29T14:48:24.062Z,8.63
2019-04-29T14:50:54.203Z,10.07
2019-04-29T14:53:24.433Z,8.33
2019-04-29T14:55:55.749Z,8.43
2019-04-29T14:58:25.325Z,8.97
2019-04-29T15:00:56.254Z,8.70
2019-04-29T15:03:29.864Z,8.00
2019-04-29T15:05:59.155Z,7.20
2019-04-29T15:08:31.951Z,7.33
2019-04-29T15:10:59.422Z,7.37
2019-04-29T15:13:28.807Z,6.50
2019-04-29T15:16:04.610Z,8.20
2019-04-29T15:18:47.403Z,8.20
2019-04-29T15:21:11.157Z,6.80
2019-04-29T15:23:40.456Z,7.03
2019-04-29T15:26:09.817Z,6.77
2019-04-29T15:28:51.346Z,5.90
2019-04-29T15:31:21.977Z,5.33
2019-04-29T15:33:53.111Z,5.87
2019-04-29T15:36:22.397Z,5.73
2019-04-29T15:39:07.885Z,5.87
2019-04-29T15:41:29.488Z,6.40
2019-04-29T15:44:06.542Z,5.50
2019-04-29T15:46:25.186Z,6.30
2019-04-29T15:48:54.460Z,6.00
2019-04-29T15:51:24.053Z,5.00
2019-04-29T15:53:54.490Z,5.30
2019-04-29T15:56:28.726Z,5.27
2019-04-29T15:58:59.602Z,5.73
2019-04-29T16:01:27.849Z,5.07
2019-04-29T16:04:00.081Z,5.70
2019-04-29T16:06:47.650Z,4.67
2019-04-29T16:09:18.748Z,5.90
2019-04-29T16:12:05.059Z,4.77
2019-04-29T16:14:32.757Z,5.03
2019-04-29T16:17:02.041Z,5.20
2019-04-29T16:19:31.327Z,4.80
2019-04-29T16:22:00.616Z,6.50
2019-04-29T16:24:37.681Z,6.00
2019-04-29T16:29:31.945Z,8.53
2019-04-29T16:32:04.893Z,5.90
2019-04-29T16:34:37.605Z,5.83
2019-04-29T16:37:03.818Z,5.30
2019-04-29T16:39:33.569Z,5.57
2019-04-29T16:42:22.708Z,6.03
2019-04-29T16:44:52.965Z,6.93
2019-04-29T16:47:22.639Z,6.83
2019-04-29T16:49:51.913Z,5.27
2019-04-29T16:52:21.205Z,5.77
2019-04-29T16:54:50.482Z,5.20
2019-04-29T16:57:19.981Z,8.37
2019-04-29T16:59:49.523Z,5.63
2019-04-29T17:02:19.807Z,5.67
2019-04-29T17:04:49.467Z,5.70
2019-04-29T17:07:20.033Z,6.63
2019-04-29T17:09:51.545Z,6.30
2019-04-29T17:12:21.117Z,6.50
2019-04-29T17:15:03.796Z,5.43
2019-04-29T17:17:28.829Z,7.63
2019-04-29T17:19:54.573Z,7.20
2019-04-29T17:22:26.859Z,6.80
2019-04-29T17:24:55.438Z,9.27
2019-04-29T17:27:29.017Z,7.97
2019-04-29T17:30:15.977Z,6.20
2019-04-29T17:32:48.852Z,6.37
2019-04-29T17:35:15.682Z,6.90
2019-04-29T17:35:21.846Z,6.97
2019-04-29T17:37:50.581Z,5.90
2019-04-29T17:40:21.082Z,7.20
2019-04-29T17:42:52.245Z,10.00
2019-04-29T17:45:30.615Z,7.60
2019-04-29T17:47:58.709Z,6.00
2019-04-29T17:50:39.159Z,6.20
2019-04-29T17:53:08.530Z,6.43
2019-04-29T17:55:40.980Z,6.27
2019-04-29T17:58:19.736Z,10.03
2019-04-29T18:00:58.293Z,8.87
2019-04-29T18:03:29.910Z,7.30
2019-04-29T18:06:09.610Z,7.40
2019-04-29T18:08:49.793Z,7.80
2019-04-29T18:11:19.069Z,6.00
2019-04-29T18:13:48.350Z,6.03
2019-04-29T18:16:25.885Z,7.63
2019-04-29T18:18:57.667Z,8.87
2019-04-29T18:21:43.447Z,9.40
2019-04-29T18:24:19.545Z,18.77
2019-04-29T18:26:52.723Z,12.83
2019-04-29T18:29:21.571Z,14.13
2019-04-29T18:31:50.858Z,9.53
2019-04-29T18:34:20.198Z,7.17
2019-04-29T18:36:49.801Z,9.43
2019-04-29T18:39:26.856Z,7.83
2019-04-29T18:41:52.295Z,8.70
2019-04-29T18:44:21.619Z,9.30
2019-04-29T18:46:53.845Z,9.63
2019-04-29T18:49:22.233Z,13.13
2019-04-29T18:51:51.857Z,11.80
2019-04-29T18:54:21.129Z,9.20
2019-04-29T18:56:50.474Z,8.57
2019-04-29T18:59:25.287Z,8.80
2019-04-29T19:01:51.041Z,9.77
2019-04-29T19:04:25.486Z,10.80
2019-04-29T19:06:59.141Z,8.80
2019-04-29T19:09:32.089Z,10.23
2019-04-29T19:11:59.164Z,11.27
2019-04-29T19:14:28.772Z,10.03
2019-04-29T19:17:01.260Z,9.60
2019-04-29T19:19:30.867Z,10.50
2019-04-29T19:22:00.683Z,10.50
2019-04-29T19:24:31.498Z,13.00
2019-04-29T19:27:02.526Z,15.77
2019-04-29T19:29:32.235Z,12.93
2019-04-29T19:32:01.520Z,11.10
2019-04-29T19:34:42.262Z,13.47
2019-04-29T19:37:01.854Z,15.00
2019-04-29T19:39:31.129Z,15.53
2019-04-29T19:42:00.706Z,16.50
2019-04-29T19:44:33.331Z,14.07
2019-04-29T19:47:01.638Z,16.33
2019-04-29T19:49:30.917Z,17.70
2019-04-29T19:52:00.214Z,15.50
2019-04-29T19:54:29.486Z,18.20
2019-04-29T19:57:03.585Z,17.03
2019-04-29T19:59:30.384Z,17.57
2019-04-29T20:02:05.833Z,18.97
2019-04-29T20:04:32.966Z,19.00
2019-04-29T20:07:07.198Z,20.30
2019-04-29T20:09:35.010Z,25.60
2019-04-29T20:12:12.675Z,20.07
2019-04-29T20:14:37.266Z,23.90
2019-04-29T20:17:18.472Z,25.87
2019-04-29T20:19:55.242Z,23.37
2019-04-29T20:22:20.765Z,22.73
2019-04-29T20:24:50.920Z,22.50
2019-04-29T20:27:21.490Z,21.93
2019-04-29T20:29:51.139Z,23.93
2019-04-29T20:32:22.296Z,20.07
2019-04-29T20:34:52.416Z,21.07
2019-04-29T20:37:21.937Z,24.40
2019-04-29T20:39:52.212Z,21.40
2019-04-29T20:42:22.785Z,23.17
2019-04-29T20:44:52.286Z,22.47
2019-04-29T20:47:23.653Z,23.67
2019-04-29T20:49:52.719Z,22.07
2019-04-29T20:52:25.802Z,22.10
2019-04-29T20:55:00.449Z,22.40
2019-04-29T20:57:27.724Z,21.60
2019-04-29T20:59:56.982Z,20.90
2019-04-29T21:02:31.279Z,24.00
2019-04-29T21:04:58.191Z,24.80
2019-04-29T21:07:29.061Z,26.30
2019-04-29T21:09:59.885Z,25.67
2019-04-29T21:12:34.746Z,24.80
2019-04-29T21:15:20.517Z,27.10
2019-04-29T21:17:49.800Z,29.20
2019-04-29T21:20:19.326Z,30.17
2019-04-29T21:22:52.407Z,26.37
2019-04-29T21:25:19.584Z,30.73
2019-04-29T21:27:52.593Z,32.20
2019-04-29T21:30:20.137Z,29.80
2019-04-29T21:32:49.554Z,30.30
2019-04-29T21:35:20.638Z,29.20
2019-04-29T21:38:08.182Z,28.50
2019-04-29T21:40:41.989Z,24.60
2019-04-29T21:43:13.950Z,22.10
2019-04-29T21:45:48.278Z,25.13
2019-04-29T21:48:15.568Z,22.83
2019-04-29T21:50:44.981Z,22.60
2019-04-29T21:53:15.102Z,21.70
2019-04-29T21:55:45.805Z,21.40
2019-04-29T21:58:15.225Z,23.63
2019-04-29T22:00:45.480Z,27.80
2019-04-29T22:03:19.734Z,22.90
2019-04-29T22:05:49.273Z,20.83
2019-04-29T22:08:20.368Z,31.37
2019-04-29T22:10:50.024Z,22.20
2019-04-29T22:13:19.309Z,28.47
2019-04-29T22:15:48.894Z,25.67
2019-04-29T22:18:18.256Z,30.00
2019-04-29T22:20:48.608Z,30.00
2019-04-29T22:23:18.409Z,31.87
2019-04-29T22:25:47.694Z,32.83
2019-04-29T22:28:19.776Z,31.77
2019-04-29T22:30:49.889Z,34.23
2019-04-29T22:33:19.308Z,31.90
2019-04-29T22:35:48.592Z,31.07
2019-04-29T22:38:18.699Z,37.23
2019-04-29T22:40:49.014Z,39.33
2019-04-29T22:43:32.197Z,38.30
2019-04-29T22:46:04.872Z,43.40
2019-04-29T22:48:34.842Z,38.97
2019-04-29T22:51:10.017Z,41.53
2019-04-29T22:53:40.055Z,42.77
2019-04-29T22:56:08.997Z,43.87
2019-04-29T22:58:43.445Z,48.27
2019-04-29T23:01:10.645Z,46.57
2019-04-29T23:03:40.006Z,45.90
2019-04-29T23:06:10.249Z,42.57
2019-04-29T23:08:39.541Z,44.10
2019-04-29T23:11:09.149Z,47.43
2019-04-29T23:13:38.506Z,43.47
2019-04-29T23:16:07.780Z,46.93
2019-04-29T23:18:42.207Z,47.07
2019-04-29T23:21:16.489Z,50.53
2019-04-29T23:23:47.599Z,43.90
2019-04-29T23:26:17.141Z,43.97
2019-04-29T23:28:47.568Z,43.40
2019-04-29T23:31:17.036Z,47.27
2019-04-29T23:33:46.581Z,47.53
2019-04-29T23:36:16.127Z,43.17
2019-04-29T23:38:45.452Z,44.40
2019-04-29T23:41:15.332Z,44.97
2019-04-29T23:43:45.621Z,42.10
2019-04-29T23:46:16.119Z,42.90
2019-04-29T23:48:46.796Z,43.63
2019-04-29T23:51:17.193Z,46.47
2019-04-29T23:53:46.482Z,42.70
2019-04-29T23:56:15.936Z,44.63
2019-04-29T23:58:55.969Z,48.90
